Time;durP1;ratioP1;P1;durP2;ratioP2;P2;SDS_P1;SDS_P2;PMS_P1;PMS_P2;Temp;Humidity;BMP_temperature;BMP_pressure;BME280_temperature;BME280_humidity;BME280_pressure;Samples;Min_cycle;Max_cycle;Signal;HPM_P1;HPM_P2
2023/03/31 00:00:53;;;;;;;7.75;1.08;;;11.00;99.90;;;;;;5037342;28;25124;-71
2023/03/31 00:03:23;;;;;;;2.58;1.00;;;10.90;99.90;;;;;;5037898;28;25074;-71
2023/03/31 00:05:58;;;;;;;2.70;0.65;;;10.90;99.90;;;;;;5037803;28;25085;-71
2023/03/31 00:08:28;;;;;;;4.38;1.42;;;10.80;99.90;;;;;;5037177;28;25411;-71
2023/03/31 00:10:59;;;;;;;9.38;2.35;;;10.80;99.90;;;;;;5037353;28;25052;-71
2023/03/31 00:13:27;;;;;;;5.05;1.25;;;10.80;99.90;;;;;;5036850;28;25099;-71
2023/03/31 00:16:00;;;;;;;4.35;1.30;;;10.80;99.90;;;;;;5037159;28;25126;-71
2023/03/31 00:18:28;;;;;;;3.25;1.00;;;10.80;99.90;;;;;;5019489;28;25067;-71
2023/03/31 00:21:08;;;;;;;2.85;1.00;;;10.80;99.90;;;;;;5037114;28;25110;-70
2023/03/31 00:23:35;;;;;;;7.32;1.25;;;10.80;99.90;;;;;;5036795;28;25062;-71
2023/03/31 00:26:03;;;;;;;7.10;1.10;;;10.80;99.90;;;;;;5019326;28;25105;-71
2023/03/31 00:28:30;;;;;;;4.65;0.82;;;10.80;99.90;;;;;;5037464;28;25069;-71
2023/03/31 00:31:02;;;;;;;6.07;1.73;;;10.80;99.90;;;;;;5037559;28;25062;-71
2023/03/31 00:33:30;;;;;;;6.82;1.73;;;10.80;99.90;;;;;;5036838;28;25081;-71
2023/03/31 00:36:00;;;;;;;5.43;1.13;;;10.80;99.90;;;;;;5036772;28;25068;-70
2023/03/31 00:38:32;;;;;;;3.70;1.00;;;10.80;99.90;;;;;;5036939;28;25147;-71
2023/03/31 00:41:00;;;;;;;4.90;0.80;;;10.90;99.90;;;;;;5019114;28;25060;-71
2023/03/31 00:43:30;;;;;;;2.75;1.05;;;10.80;99.90;;;;;;5036943;28;25064;-71
2023/03/31 00:46:07;;;;;;;10.43;1.00;;;10.80;99.90;;;;;;5036693;28;25066;-71
2023/03/31 00:48:37;;;;;;;4.75;1.45;;;10.80;99.90;;;;;;5037029;28;25070;-71
2023/03/31 00:51:06;;;;;;;5.70;0.90;;;10.70;99.90;;;;;;5037157;28;25058;-71
2023/03/31 00:53:36;;;;;;;5.65;1.10;;;10.70;99.90;;;;;;5036615;28;25155;-71
2023/03/31 00:56:14;;;;;;;3.60;1.15;;;10.70;99.90;;;;;;5036591;28;25121;-71
2023/03/31 00:58:43;;;;;;;6.57;1.20;;;10.70;99.90;;;;;;5036994;28;25051;-71
2023/03/31 01:01:18;;;;;;;6.72;1.10;;;10.60;99.90;;;;;;5036378;28;25123;-71
2023/03/31 01:03:46;;;;;;;5.70;0.90;;;10.60;99.90;;;;;;5036492;28;25101;-71
2023/03/31 01:06:18;;;;;;;3.75;1.15;;;10.60;99.90;;;;;;5018843;28;25010;-71
2023/03/31 01:08:50;;;;;;;7.78;1.25;;;10.50;99.90;;;;;;5036131;28;25066;-71
2023/03/31 01:11:21;;;;;;;5.60;1.05;;;10.40;99.90;;;;;;5036316;28;25098;-71
2023/03/31 01:13:51;;;;;;;4.80;0.80;;;10.40;99.90;;;;;;5036273;28;25072;-71
2023/03/31 01:16:19;;;;;;;6.18;1.25;;;10.30;99.90;;;;;;5036899;28;25093;-71
2023/03/31 01:18:48;;;;;;;5.53;0.90;;;10.20;99.90;;;;;;5018592;28;25139;-71
2023/03/31 01:21:39;;;;;;;5.65;1.15;;;10.20;99.90;;;;;;5036207;28;25063;-71
2023/03/31 01:24:06;;;;;;;2.55;0.77;;;10.20;99.90;;;;;;5037102;28;25106;-71
2023/03/31 01:26:54;;;;;;;4.72;1.00;;;10.10;99.90;;;;;;5041025;28;25087;-71
2023/03/31 01:29:26;;;;;;;3.45;0.90;;;10.10;99.90;;;;;;5040814;28;25107;-71
2023/03/31 01:32:25;;;;;;;7.22;1.92;;;10.00;99.90;;;;;;5040657;28;25108;-71
2023/03/31 01:35:04;;;;;;;4.72;1.30;;;10.00;99.90;;;;;;5022582;28;25128;-71
2023/03/31 01:37:50;;;;;;;2.80;0.95;;;10.00;99.90;;;;;;5040775;28;25137;-70
2023/03/31 01:40:37;;;;;;;7.85;1.08;;;10.00;99.90;;;;;;5022562;28;25068;-70
2023/03/31 01:43:28;;;;;;;7.05;1.38;;;9.90;99.90;;;;;;5039930;28;25076;-70
2023/03/31 01:46:05;;;;;;;5.97;0.90;;;9.90;99.90;;;;;;5022272;28;25119;-70
2023/03/31 01:48:59;;;;;;;7.03;1.13;;;9.80;99.90;;;;;;5022155;28;25091;-71
2023/03/31 01:51:52;;;;;;;10.13;1.50;;;9.80;99.90;;;;;;5040381;28;25099;-70
2023/03/31 01:54:39;;;;;;;5.22;1.20;;;9.80;99.90;;;;;;5022549;28;25151;-71
2023/03/31 01:57:18;;;;;;;;;;;9.80;99.90;;;;;;5039981;28;25082;-70
2023/03/31 02:00:13;;;;;;;3.88;1.35;;;9.70;99.90;;;;;;5039680;28;25079;-70
2023/03/31 02:02:58;;;;;;;7.90;1.05;;;9.70;99.90;;;;;;5039887;28;25055;-70
2023/03/31 02:05:38;;;;;;;3.78;0.80;;;9.60;99.90;;;;;;5022217;28;25060;-71
2023/03/31 02:08:14;;;;;;;4.88;1.02;;;9.60;99.90;;;;;;5039369;28;25123;-70
2023/03/31 02:10:45;;;;;;;6.55;1.70;;;9.50;99.90;;;;;;5038898;28;25104;-71
2023/03/31 02:13:15;;;;;;;4.00;0.98;;;9.50;99.90;;;;;;5039939;28;25092;-71
2023/03/31 02:15:47;;;;;;;6.85;1.10;;;9.50;99.90;;;;;;5039147;28;25072;-71
2023/03/31 02:18:20;;;;;;;8.38;1.80;;;9.50;99.90;;;;;;5021676;28;25074;-71
2023/03/31 02:20:50;;;;;;;6.25;1.20;;;9.50;99.90;;;;;;5039263;28;25074;-71
2023/03/31 02:23:25;;;;;;;6.90;2.40;;;9.50;99.90;;;;;;5039146;28;25072;-71
2023/03/31 02:25:59;;;;;;;5.97;1.20;;;9.50;99.90;;;;;;5039331;28;25122;-70
2023/03/31 02:28:27;;;;;;;8.57;2.25;;;9.50;99.90;;;;;;5021496;28;25109;-70
2023/03/31 02:31:17;;;;;;;6.72;1.23;;;9.60;99.90;;;;;;5021488;28;25114;-70
2023/03/31 02:33:44;;;;;;;7.95;1.30;;;9.60;99.90;;;;;;5021484;28;25121;-70
2023/03/31 02:36:12;;;;;;;8.32;1.02;;;9.60;99.90;;;;;;5039144;28;25066;-70
2023/03/31 02:38:58;;;;;;;7.13;1.08;;;9.60;99.90;;;;;;5021551;28;25063;-71
2023/03/31 02:41:25;;;;;;;3.20;1.15;;;9.70;99.90;;;;;;5021337;28;25081;-70
2023/03/31 02:43:53;;;;;;;4.60;1.42;;;9.60;99.90;;;;;;5038772;28;25108;-71
2023/03/31 02:46:20;;;;;;;9.43;0.93;;;9.60;99.90;;;;;;5021193;28;25064;-71
2023/03/31 02:48:51;;;;;;;10.20;1.65;;;9.60;99.90;;;;;;5038777;28;25045;-71
2023/03/31 02:51:47;;;;;;;4.90;0.95;;;9.60;99.90;;;;;;5038795;28;25075;-71
2023/03/31 02:54:41;;;;;;;5.07;1.02;;;9.60;99.90;;;;;;5038893;28;25075;-70
2023/03/31 02:57:33;;;;;;;5.70;0.90;;;9.60;99.90;;;;;;5039051;28;25055;-70
2023/03/31 03:00:18;;;;;;;7.38;1.17;;;9.60;99.90;;;;;;5020954;28;25055;-70
2023/03/31 03:03:29;;;;;;;6.13;1.15;;;9.60;99.90;;;;;;5038991;28;25096;-70
2023/03/31 03:06:05;;;;;;;12.88;1.20;;;9.60;99.90;;;;;;5020664;28;25123;-71
2023/03/31 03:09:04;;;;;;;6.25;1.08;;;9.60;99.90;;;;;;5020764;28;25065;-71
2023/03/31 03:12:05;;;;;;;8.48;0.70;;;9.60;99.90;;;;;;5038293;28;25065;-71
2023/03/31 03:14:48;;;;;;;5.45;1.58;;;9.70;99.90;;;;;;5038748;28;25061;-71
2023/03/31 03:17:35;;;;;;;3.35;1.10;;;9.70;99.90;;;;;;5020804;28;25070;-71
2023/03/31 03:20:08;;;;;;;5.45;1.40;;;9.70;99.90;;;;;;5020548;28;25111;-71
2023/03/31 03:22:37;;;;;;;6.05;1.27;;;9.70;99.90;;;;;;5020377;28;25137;-70
2023/03/31 03:25:08;;;;;;;4.03;1.40;;;9.70;99.90;;;;;;5039425;28;25088;-70
2023/03/31 03:27:36;;;;;;;4.85;1.27;;;9.80;99.90;;;;;;5037991;28;25080;-70
2023/03/31 03:30:06;;;;;;;4.30;1.10;;;9.80;99.90;;;;;;5020263;28;25056;-71
2023/03/31 03:32:33;;;;;;;6.55;1.17;;;9.80;99.90;;;;;;5037944;28;25094;-71
2023/03/31 03:35:05;;;;;;;2.80;0.90;;;9.80;99.90;;;;;;5037863;28;25110;-70
2023/03/31 03:37:34;;;;;;;6.07;1.27;;;9.90;99.90;;;;;;5038229;28;25103;-71
2023/03/31 03:40:02;;;;;;;3.85;0.77;;;9.90;99.90;;;;;;5037446;28;25130;-70
2023/03/31 03:42:30;;;;;;;4.38;1.02;;;9.90;99.90;;;;;;5037819;28;25081;-70
2023/03/31 03:44:57;;;;;;;5.53;0.90;;;10.00;99.90;;;;;;5019898;28;25061;-71
2023/03/31 03:47:24;;;;;;;5.75;0.80;;;10.00;99.90;;;;;;5037165;28;25059;-70
2023/03/31 03:49:52;;;;;;;6.15;0.80;;;10.00;99.90;;;;;;5036978;28;25060;-70
2023/03/31 03:52:20;;;;;;;4.05;1.20;;;10.00;99.90;;;;;;5037636;28;25140;-70
2023/03/31 03:54:48;;;;;;;7.10;0.98;;;10.00;99.90;;;;;;5037493;28;25090;-70
2023/03/31 03:57:15;;;;;;;5.38;0.90;;;10.00;99.90;;;;;;5038023;28;25146;-70
2023/03/31 03:59:43;;;;;;;4.35;1.63;;;10.10;99.90;;;;;;5037401;28;25067;-70
2023/03/31 04:02:10;;;;;;;6.70;1.27;;;10.10;99.90;;;;;;5037559;28;25062;-70
2023/03/31 04:04:37;;;;;;;5.15;0.98;;;10.10;99.90;;;;;;5019640;28;25065;-71
2023/03/31 04:07:04;;;;;;;5.80;0.93;;;10.10;99.90;;;;;;5019704;28;25122;-70
2023/03/31 04:09:32;;;;;;;6.85;1.30;;;10.00;99.90;;;;;;5037204;28;25080;-70
2023/03/31 04:11:59;;;;;;;2.28;0.60;;;10.00;99.90;;;;;;5037884;28;25069;-70
2023/03/31 04:14:27;;;;;;;12.85;2.53;;;10.00;99.90;;;;;;5037637;28;25096;-70
2023/03/31 04:16:55;;;;;;;6.38;1.05;;;9.90;99.90;;;;;;5037712;28;25113;-71
2023/03/31 04:19:24;;;;;;;8.68;1.55;;;9.90;99.90;;;;;;5037611;28;25116;-70
2023/03/31 04:22:03;;;;;;;6.68;1.05;;;9.80;99.90;;;;;;5036876;28;25134;-70
2023/03/31 04:24:31;;;;;;;5.88;1.35;;;9.80;99.90;;;;;;5037231;28;25133;-70
2023/03/31 04:27:01;;;;;;;6.55;0.85;;;9.70;99.90;;;;;;5037187;28;25064;-70
2023/03/31 04:29:32;;;;;;;6.18;1.17;;;9.70;99.90;;;;;;5036870;28;25073;-70
2023/03/31 04:32:00;;;;;;;5.35;1.10;;;9.60;99.90;;;;;;5037393;28;25106;-70
2023/03/31 04:34:33;;;;;;;5.20;0.98;;;9.60;99.90;;;;;;5019258;28;25076;-70
2023/03/31 04:37:02;;;;;;;5.25;0.98;;;9.60;99.90;;;;;;5036739;28;25108;-70
2023/03/31 04:39:29;;;;;;;4.43;0.93;;;9.50;99.90;;;;;;5037199;28;25066;-70
2023/03/31 04:41:58;;;;;;;3.55;0.90;;;9.50;99.90;;;;;;5037141;28;25069;-70
2023/03/31 04:44:26;;;;;;;3.35;1.38;;;9.50;99.90;;;;;;5035606;28;25108;-71
2023/03/31 04:46:54;;;;;;;3.47;0.90;;;9.50;99.90;;;;;;5016945;28;25063;-70
2023/03/31 04:49:21;;;;;;;8.15;1.25;;;9.50;99.90;;;;;;5017353;28;25080;-70
2023/03/31 04:51:49;;;;;;;8.77;1.08;;;9.50;99.90;;;;;;4999398;28;25108;-70
2023/03/31 04:54:17;;;;;;;2.97;0.65;;;9.40;99.90;;;;;;5016663;28;25145;-70
2023/03/31 04:56:44;;;;;;;3.70;0.95;;;9.40;99.90;;;;;;5016949;28;25088;-70
2023/03/31 04:59:12;;;;;;;9.07;1.70;;;9.40;99.90;;;;;;5016395;28;25160;-70
2023/03/31 05:01:43;;;;;;;4.90;1.00;;;9.50;99.90;;;;;;5017288;28;25065;-70
2023/03/31 05:04:11;;;;;;;4.35;0.98;;;9.50;99.90;;;;;;5016761;28;25115;-70
2023/03/31 05:06:39;;;;;;;9.23;1.05;;;9.50;99.90;;;;;;4999327;28;25070;-70
2023/03/31 05:09:08;;;;;;;3.88;0.70;;;9.50;99.90;;;;;;5016750;28;25090;-70
2023/03/31 05:11:37;;;;;;;6.75;1.50;;;9.50;99.90;;;;;;5016549;28;25049;-70
2023/03/31 05:14:04;;;;;;;7.15;0.95;;;9.50;99.90;;;;;;5016491;28;25053;-70
2023/03/31 05:16:32;;;;;;;8.82;1.10;;;9.50;99.90;;;;;;4999123;28;25056;-71
2023/03/31 05:18:59;;;;;;;4.55;0.85;;;9.50;99.90;;;;;;5016879;28;25096;-70
2023/03/31 05:21:29;;;;;;;5.85;0.75;;;9.50;99.90;;;;;;5016464;28;25137;-71
2023/03/31 05:23:58;;;;;;;1.70;0.80;;;9.50;99.90;;;;;;5016309;28;25086;-70
2023/03/31 05:26:26;;;;;;;5.97;0.93;;;9.40;99.90;;;;;;5016482;28;25062;-70
2023/03/31 05:28:53;;;;;;;7.45;1.10;;;9.40;99.90;;;;;;5016300;28;25125;-71
2023/03/31 05:31:21;;;;;;;7.22;0.88;;;9.40;99.90;;;;;;5015852;28;25117;-71
2023/03/31 05:33:48;;;;;;;3.70;1.17;;;9.40;99.90;;;;;;5016874;28;25101;-70
2023/03/31 05:36:17;;;;;;;7.18;1.52;;;9.40;99.90;;;;;;5016821;28;25083;-71
2023/03/31 05:38:46;;;;;;;5.63;0.98;;;9.40;99.90;;;;;;4998861;28;25078;-70
2023/03/31 05:41:15;;;;;;;5.65;1.30;;;9.40;99.90;;;;;;4998824;28;25078;-70
2023/03/31 05:43:42;;;;;;;6.40;1.50;;;9.40;99.90;;;;;;5016191;28;25106;-71
2023/03/31 05:46:10;;;;;;;3.97;0.90;;;9.30;99.90;;;;;;5031421;28;25078;-72
2023/03/31 05:48:38;;;;;;;2.15;1.30;;;9.40;99.90;;;;;;5036670;28;25083;-71
2023/03/31 05:51:05;;;;;;;3.85;1.00;;;9.40;99.90;;;;;;5036031;28;25056;-71
2023/03/31 05:53:32;;;;;;;3.30;0.93;;;9.40;99.90;;;;;;5035083;28;25105;-71
2023/03/31 05:56:03;;;;;;;6.25;0.90;;;9.40;99.90;;;;;;5018613;28;25080;-71
2023/03/31 05:58:32;;;;;;;4.38;0.75;;;9.40;99.90;;;;;;5035822;28;25075;-72
2023/03/31 06:01:11;;;;;;;6.50;1.00;;;9.40;99.90;;;;;;5036823;28;25064;-73
2023/03/31 06:03:40;;;;;;;4.20;1.00;;;9.40;99.90;;;;;;5017830;28;25103;-72
2023/03/31 06:06:08;;;;;;;5.60;1.15;;;9.40;99.90;;;;;;5036254;28;25165;-73
2023/03/31 06:08:39;;;;;;;6.28;1.27;;;9.40;99.90;;;;;;5018238;28;25124;-73
2023/03/31 06:11:08;;;;;;;4.13;0.85;;;9.40;99.90;;;;;;5038071;28;25073;-73
2023/03/31 06:13:37;;;;;;;4.95;1.27;;;9.40;99.90;;;;;;5021856;28;25094;-73
2023/03/31 06:16:05;;;;;;;3.15;1.10;;;9.40;99.90;;;;;;5038806;28;25075;-74
2023/03/31 06:18:35;;;;;;;7.18;1.40;;;9.40;99.90;;;;;;5021765;28;25053;-74
2023/03/31 06:21:03;;;;;;;4.72;1.00;;;9.50;99.90;;;;;;5021815;28;25066;-74
2023/03/31 06:23:30;;;;;;;7.53;1.10;;;9.50;99.90;;;;;;5021539;28;25066;-75
2023/03/31 06:26:07;;;;;;;4.85;1.27;;;9.50;99.90;;;;;;5039211;28;25064;-74
2023/03/31 06:28:35;;;;;;;6.57;1.35;;;9.50;99.90;;;;;;5039138;28;25108;-73
2023/03/31 06:31:11;;;;;;;8.00;1.50;;;9.60;99.90;;;;;;5039844;28;25052;-73
2023/03/31 06:33:39;;;;;;;;;;;9.60;99.90;;;;;;5039525;28;25112;-72
2023/03/31 06:36:07;;;;;;;3.53;0.85;;;9.60;99.90;;;;;;5039149;28;24076;-72
2023/03/31 06:38:37;;;;;;;3.97;1.15;;;9.60;99.90;;;;;;5021263;28;25046;-73
2023/03/31 06:41:06;;;;;;;6.30;1.08;;;9.70;99.90;;;;;;5039060;28;25132;-72
2023/03/31 06:43:33;;;;;;;3.60;0.82;;;9.70;99.90;;;;;;5038904;28;25074;-77
2023/03/31 06:46:01;;;;;;;4.43;1.17;;;9.70;99.90;;;;;;5038735;28;25057;-72
2023/03/31 06:48:28;;;;;;;4.68;1.35;;;9.80;99.90;;;;;;5021300;28;25100;-73
2023/03/31 06:51:00;;;;;;;5.32;1.20;;;9.70;99.90;;;;;;5021160;28;25044;-72
2023/03/31 06:53:28;;;;;;;6.50;1.15;;;9.80;99.90;;;;;;5021031;28;25098;-72
2023/03/31 06:55:56;;;;;;;4.07;1.27;;;9.80;99.90;;;;;;5038569;28;25122;-72
2023/03/31 06:58:23;;;;;;;3.45;0.98;;;9.80;99.90;;;;;;5021105;28;25070;-72
2023/03/31 07:00:51;;;;;;;4.82;1.40;;;9.70;99.90;;;;;;5020971;28;25131;-71
2023/03/31 07:03:21;;;;;;;4.43;1.50;;;9.80;99.90;;;;;;5038663;28;25056;-73
2023/03/31 07:05:54;;;;;;;6.90;0.95;;;9.80;99.90;;;;;;5038802;28;25116;-72
2023/03/31 07:08:22;;;;;;;7.35;1.20;;;9.90;99.90;;;;;;5020803;28;25056;-72
2023/03/31 07:10:54;;;;;;;4.97;1.33;;;9.80;99.90;;;;;;5038479;28;25074;-72
2023/03/31 07:13:22;;;;;;;3.95;1.00;;;9.80;99.90;;;;;;5038837;28;25073;-72
2023/03/31 07:15:50;;;;;;;5.07;1.38;;;9.90;99.90;;;;;;5038439;28;25056;-72
2023/03/31 07:18:19;;;;;;;4.15;1.17;;;9.90;99.90;;;;;;5021217;28;25073;-71
2023/03/31 07:20:50;;;;;;;6.50;3.45;;;9.90;99.90;;;;;;5038750;28;25142;-72
2023/03/31 07:23:18;;;;;;;4.57;1.10;;;9.90;99.90;;;;;;5037789;28;25133;-71
2023/03/31 07:25:46;;;;;;;5.28;1.02;;;9.90;99.90;;;;;;5038828;28;25154;-72
2023/03/31 07:28:14;;;;;;;6.93;1.77;;;10.00;99.90;;;;;;5038099;28;25070;-72
2023/03/31 07:30:41;;;;;;;5.03;1.02;;;10.00;99.90;;;;;;5038083;28;25088;-72
2023/03/31 07:33:08;;;;;;;4.63;0.95;;;10.10;99.90;;;;;;5020406;28;25148;-72
2023/03/31 07:35:41;;;;;;;5.53;1.23;;;10.10;99.90;;;;;;5038705;28;25069;-72
2023/03/31 07:38:12;;;;;;;6.97;0.90;;;10.20;99.90;;;;;;5037871;28;25101;-72
2023/03/31 07:40:43;;;;;;;4.93;1.15;;;10.20;99.90;;;;;;5019745;28;25157;-72
2023/03/31 07:43:11;;;;;;;3.53;1.40;;;10.30;99.90;;;;;;5020180;28;25068;-72
2023/03/31 07:45:40;;;;;;;5.13;1.00;;;10.30;99.90;;;;;;5026889;28;25080;-72
2023/03/31 07:48:07;;;;;;;3.55;1.20;;;10.30;99.90;;;;;;5000479;28;25072;-72
2023/03/31 07:50:36;;;;;;;3.70;1.55;;;10.30;99.90;;;;;;5018452;28;25112;-72
2023/03/31 07:53:04;;;;;;;6.88;2.80;;;10.20;99.90;;;;;;5000341;28;25057;-72
2023/03/31 07:55:32;;;;;;;4.88;1.88;;;10.20;99.90;;;;;;5017970;28;25114;-72
2023/03/31 07:58:00;;;;;;;11.13;3.08;;;10.20;99.90;;;;;;5018013;28;25121;-72
2023/03/31 08:00:27;;;;;;;9.75;2.58;;;10.10;99.90;;;;;;5017728;28;25107;-75
2023/03/31 08:02:54;;;;;;;10.57;3.67;;;10.10;99.90;;;;;;5017557;28;25106;-70
2023/03/31 08:05:22;;;;;;;14.15;4.05;;;10.10;99.90;;;;;;5000102;28;25057;-75
2023/03/31 08:07:50;;;;;;;7.20;3.13;;;10.10;99.90;;;;;;5000031;28;25125;-71
2023/03/31 08:10:24;;;;;;;6.65;1.98;;;10.10;99.90;;;;;;5017465;28;25057;-72
2023/03/31 08:12:51;;;;;;;12.20;2.60;;;10.20;99.90;;;;;;5017457;28;25054;-72
2023/03/31 08:15:19;;;;;;;7.20;2.25;;;10.20;99.90;;;;;;5017380;28;25061;-72
2023/03/31 08:17:48;;;;;;;8.25;2.90;;;10.20;99.90;;;;;;5017907;28;25075;-72
2023/03/31 08:20:16;;;;;;;16.63;7.32;;;10.20;99.90;;;;;;5000292;28;25132;-72
2023/03/31 08:22:44;;;;;;;10.27;4.70;;;10.20;99.90;;;;;;5017185;28;25071;-72
2023/03/31 08:25:12;;;;;;;7.20;3.40;;;10.20;99.90;;;;;;5017489;28;25065;-72
2023/03/31 08:27:40;;;;;;;7.20;1.70;;;10.30;99.90;;;;;;5017253;28;25110;-72
2023/03/31 08:30:10;;;;;;;6.40;1.55;;;10.30;99.90;;;;;;5017901;28;25068;-72
2023/03/31 08:32:37;;;;;;;4.60;1.85;;;10.30;99.90;;;;;;4999894;28;25070;-72
2023/03/31 08:35:05;;;;;;;6.35;2.67;;;10.30;99.90;;;;;;4999651;28;25063;-72
2023/03/31 08:37:32;;;;;;;5.97;1.80;;;10.30;99.90;;;;;;5017546;28;25068;-72
2023/03/31 08:39:59;;;;;;;4.60;1.92;;;10.30;99.90;;;;;;5016989;28;25050;-72
2023/03/31 08:42:49;;;;;;;3.03;1.20;;;10.30;99.90;;;;;;4999661;28;25070;-72
2023/03/31 08:45:24;;;;;;;4.03;0.98;;;10.20;99.90;;;;;;5018983;28;25129;-71
2023/03/31 08:48:28;;;;;;;2.65;1.15;;;10.30;99.90;;;;;;4999402;28;25070;-72
2023/03/31 08:51:13;;;;;;;4.00;0.98;;;10.30;99.90;;;;;;5000170;28;25061;-72
2023/03/31 08:54:06;;;;;;;5.50;1.10;;;10.30;99.90;;;;;;4999351;28;25085;-71
2023/03/31 08:56:42;;;;;;;2.22;0.75;;;10.40;99.90;;;;;;4999292;28;25062;-71
2023/03/31 08:59:36;;;;;;;2.72;0.80;;;10.40;99.90;;;;;;4999318;28;25080;-71
2023/03/31 09:02:10;;;;;;;2.22;0.70;;;10.40;99.90;;;;;;5017039;28;25066;-71
2023/03/31 09:05:05;;;;;;;4.68;0.80;;;10.30;99.90;;;;;;4999352;28;25103;-72
2023/03/31 09:08:01;;;;;;;3.65;1.33;;;10.40;99.90;;;;;;5017355;28;25111;-72
2023/03/31 09:10:45;;;;;;;3.38;1.20;;;10.40;99.90;;;;;;4999389;28;25141;-72
2023/03/31 09:13:28;;;;;;;8.10;1.13;;;10.40;99.90;;;;;;5017098;28;25079;-72
2023/03/31 09:16:19;;;;;;;3.05;1.00;;;10.50;99.90;;;;;;5017018;28;25054;-71
2023/03/31 09:18:48;;;;;;;4.60;0.98;;;10.50;99.90;;;;;;5017093;28;25070;-71
2023/03/31 09:21:34;;;;;;;1.95;0.55;;;10.50;99.90;;;;;;5017206;28;25073;-71
2023/03/31 09:24:08;;;;;;;3.88;1.27;;;10.50;99.90;;;;;;5016480;28;25121;-71
2023/03/31 09:26:39;;;;;;;1.20;0.90;;;10.50;99.90;;;;;;4998884;28;25093;-72
2023/03/31 09:29:23;;;;;;;1.90;0.60;;;10.50;99.90;;;;;;5016799;28;25067;-72
2023/03/31 09:31:50;;;;;;;4.07;0.60;;;10.40;99.90;;;;;;5016931;28;25090;-72
2023/03/31 09:34:33;;;;;;;2.95;0.57;;;10.40;99.90;;;;;;4998946;28;25065;-72
2023/03/31 09:37:01;;;;;;;1.98;0.68;;;10.40;99.90;;;;;;4998911;28;25053;-71
2023/03/31 09:39:28;;;;;;;3.90;0.75;;;10.30;99.90;;;;;;4998847;28;25059;-72
2023/03/31 09:41:56;;;;;;;3.25;0.70;;;10.30;99.90;;;;;;5016307;28;25125;-72
2023/03/31 09:44:35;;;;;;;2.75;0.70;;;10.20;99.90;;;;;;5016806;28;25089;-72
2023/03/31 09:47:06;;;;;;;3.28;1.45;;;10.10;99.90;;;;;;5037706;28;25077;-71
2023/03/31 09:49:36;;;;;;;1.77;0.60;;;10.10;99.90;;;;;;5039877;28;25069;-72
2023/03/31 09:52:17;;;;;;;3.53;0.80;;;10.00;99.90;;;;;;5040377;28;25057;-72
2023/03/31 09:54:52;;;;;;;2.00;0.55;;;9.90;99.90;;;;;;5039826;28;25066;-72
2023/03/31 09:57:29;;;;;;;4.22;0.57;;;9.80;99.90;;;;;;5040040;28;25077;-72
2023/03/31 10:00:16;;;;;;;3.60;0.63;;;9.70;99.90;;;;;;5022125;28;25046;-72
2023/03/31 10:02:55;;;;;;;;;;;9.60;99.90;;;;;;5022466;28;25064;-71
2023/03/31 10:05:35;;;;;;;0.68;0.30;;;9.60;99.90;;;;;;5040334;28;24075;-72
2023/03/31 10:08:12;;;;;;;4.40;0.82;;;9.60;99.90;;;;;;5040354;28;25116;-72
2023/03/31 10:10:45;;;;;;;2.78;1.73;;;9.50;99.90;;;;;;5022007;28;25085;-72
2023/03/31 10:13:20;;;;;;;8.73;4.95;;;9.50;99.90;;;;;;5040024;28;25103;-72
2023/03/31 10:15:51;;;;;;;6.22;1.50;;;9.50;99.90;;;;;;5039959;28;25060;-72
2023/03/31 10:18:20;;;;;;;6.50;2.13;;;9.40;99.90;;;;;;5039415;28;25146;-72
2023/03/31 10:20:52;;;;;;;2.97;1.27;;;9.50;99.90;;;;;;5039736;28;25066;-73
2023/03/31 10:23:28;;;;;;;5.07;2.47;;;9.40;99.90;;;;;;5021671;28;25116;-72
2023/03/31 10:25:57;;;;;;;2.95;1.38;;;9.40;99.90;;;;;;5039817;28;25052;-72
2023/03/31 10:28:25;;;;;;;3.75;1.60;;;9.40;99.90;;;;;;5021708;28;25076;-72
2023/03/31 10:30:56;;;;;;;2.33;0.80;;;9.40;99.90;;;;;;5039759;28;25069;-72
2023/03/31 10:33:27;;;;;;;8.95;4.03;;;9.30;99.90;;;;;;5039223;28;25063;-71
2023/03/31 10:36:08;;;;;;;4.75;1.88;;;9.30;99.90;;;;;;5039837;28;25084;-72
2023/03/31 10:38:44;;;;;;;2.38;0.90;;;9.30;99.90;;;;;;5038967;28;25088;-72
2023/03/31 10:41:12;;;;;;;7.00;3.03;;;9.40;99.90;;;;;;5039596;28;25068;-72
2023/03/31 10:43:50;;;;;;;8.85;2.53;;;9.50;99.90;;;;;;5021298;28;25053;-73
2023/03/31 10:46:18;;;;;;;7.15;2.75;;;9.50;99.90;;;;;;5039023;28;25136;-72
2023/03/31 10:48:45;;;;;;;7.53;2.47;;;9.60;99.90;;;;;;5039363;28;25064;-72
2023/03/31 10:51:17;;;;;;;6.07;1.95;;;9.70;99.90;;;;;;5021265;28;25064;-72
2023/03/31 10:53:50;;;;;;;12.02;5.03;;;9.90;99.90;;;;;;5038726;28;25045;-72
2023/03/31 10:56:46;;;;;;;7.53;3.38;;;9.90;99.90;;;;;;5038711;28;25058;-72
2023/03/31 10:59:35;;;;;;;9.32;2.50;;;10.10;99.90;;;;;;5038960;28;25056;-72
2023/03/31 11:02:14;;;;;;;6.00;2.33;;;10.30;99.90;;;;;;5039242;28;25080;-72
2023/03/31 11:04:55;;;;;;;3.63;0.85;;;10.40;99.90;;;;;;5039041;28;25086;-72
2023/03/31 11:07:40;;;;;;;6.30;2.92;;;10.40;99.90;;;;;;5039087;28;25076;-72
2023/03/31 11:10:37;;;;;;;5.75;1.92;;;10.40;99.90;;;;;;5039100;28;25068;-72
2023/03/31 11:13:37;;;;;;;3.35;0.85;;;10.30;99.90;;;;;;5038458;28;25126;-72
2023/03/31 11:16:20;;;;;;;2.05;0.70;;;10.20;99.90;;;;;;5001396;28;25066;-72
2023/03/31 11:18:54;;;;;;;2.63;0.80;;;10.20;99.90;;;;;;5038853;28;25058;-72
2023/03/31 11:22:03;;;;;;;3.30;0.80;;;10.20;99.90;;;;;;5038782;28;25045;-72
2023/03/31 11:24:49;;;;;;;3.60;0.70;;;10.20;99.90;;;;;;5021207;28;25096;-72
2023/03/31 11:27:41;;;;;;;1.98;0.57;;;10.10;99.90;;;;;;5038309;28;25082;-72
2023/03/31 11:30:32;;;;;;;4.15;0.65;;;10.10;99.90;;;;;;5038160;28;25122;-72
2023/03/31 11:33:35;;;;;;;3.35;0.85;;;10.00;99.90;;;;;;5038335;28;25107;-72
2023/03/31 11:36:40;;;;;;;4.05;0.93;;;9.90;99.90;;;;;;5038422;28;25061;-72
2023/03/31 11:39:38;;;;;;;1.67;0.60;;;9.80;99.90;;;;;;5037880;28;25062;-72
2023/03/31 11:42:13;;;;;;;9.45;2.08;;;9.70;99.90;;;;;;5020347;28;25086;-72
2023/03/31 11:44:57;;;;;;;8.27;3.22;;;9.60;99.90;;;;;;5037971;28;25056;-72
2023/03/31 11:47:33;;;;;;;12.52;4.38;;;9.70;99.90;;;;;;5038169;28;25096;-72
2023/03/31 11:50:04;;;;;;;;;;;9.70;99.90;;;;;;5038497;28;25079;-71
2023/03/31 11:52:35;;;;;;;5.00;2.60;;;9.80;99.90;;;;;;5037881;28;24078;-72
2023/03/31 11:55:20;;;;;;;5.55;1.42;;;9.80;99.90;;;;;;5037854;28;25080;-71
2023/03/31 11:58:01;;;;;;;7.18;1.85;;;10.00;99.90;;;;;;5037607;28;25080;-72
2023/03/31 12:00:31;;;;;;;4.03;0.70;;;10.10;99.90;;;;;;5037878;28;25065;-71
2023/03/31 12:02:59;;;;;;;5.65;1.45;;;10.20;99.90;;;;;;5038047;28;25052;-71
2023/03/31 12:05:29;;;;;;;5.63;0.90;;;10.40;99.90;;;;;;5020104;28;25085;-72
2023/03/31 12:08:06;;;;;;;3.95;1.00;;;10.60;99.90;;;;;;5019240;28;25092;-72
2023/03/31 12:10:44;;;;;;;4.97;1.00;;;10.80;99.90;;;;;;5019774;28;25049;-72
2023/03/31 12:13:44;;;;;;;8.02;1.30;;;10.90;99.90;;;;;;5037310;28;25084;-72
2023/03/31 12:16:29;;;;;;;5.00;1.30;;;11.10;99.90;;;;;;5037711;28;25066;-72
2023/03/31 12:19:02;;;;;;;7.70;0.90;;;11.20;99.90;;;;;;5019618;28;25100;-72
2023/03/31 12:21:30;;;;;;;4.03;1.02;;;11.40;99.90;;;;;;5037889;28;25054;-72
2023/03/31 12:23:58;;;;;;;2.45;1.02;;;11.50;99.90;;;;;;5037312;28;25112;-71
2023/03/31 12:26:59;;;;;;;4.65;1.25;;;11.70;99.90;;;;;;5037368;28;25047;-72
2023/03/31 12:30:05;;;;;;;3.17;0.73;;;11.80;99.90;;;;;;5037164;28;25057;-72
2023/03/31 12:32:37;;;;;;;2.47;0.73;;;12.00;99.90;;;;;;5025796;28;25084;-72
2023/03/31 12:35:29;;;;;;;5.50;0.90;;;12.10;99.90;;;;;;5036713;28;25120;-72
2023/03/31 12:38:27;;;;;;;4.47;0.85;;;12.30;99.90;;;;;;5036616;28;25062;-72
2023/03/31 12:41:25;;;;;;;4.95;0.77;;;12.50;99.90;;;;;;5037336;28;25072;-72
2023/03/31 12:44:00;;;;;;;4.00;0.70;;;12.70;99.90;;;;;;5036775;28;25115;-72
2023/03/31 12:47:03;;;;;;;5.75;0.65;;;12.80;99.90;;;;;;5019617;28;25066;-72
2023/03/31 12:50:07;;;;;;;4.47;0.80;;;12.90;99.90;;;;;;5036626;28;25109;-72
2023/03/31 12:53:04;;;;;;;4.75;1.77;;;13.10;99.90;;;;;;5037041;28;25072;-72
2023/03/31 12:55:46;;;;;;;3.15;0.90;;;13.30;99.90;;;;;;5036889;28;25078;-72
2023/03/31 12:58:23;;;;;;;6.45;1.10;;;13.50;99.90;;;;;;5036425;28;25065;-72
2023/03/31 13:01:09;;;;;;;3.50;1.20;;;13.70;99.90;;;;;;5018916;28;25062;-72
2023/03/31 13:03:41;;;;;;;7.68;1.40;;;13.80;99.90;;;;;;5036318;28;25451;-71
2023/03/31 13:06:27;;;;;;;6.10;0.90;;;13.90;99.90;;;;;;5037083;28;25062;-72
2023/03/31 13:09:10;;;;;;;5.83;1.30;;;14.00;99.90;;;;;;5036839;28;25139;-73
2023/03/31 13:11:40;;;;;;;6.20;1.27;;;14.00;99.90;;;;;;5036611;28;25075;-73
2023/03/31 13:14:38;;;;;;;7.30;1.10;;;13.90;99.90;;;;;;5036256;28;25052;-73
2023/03/31 13:17:24;;;;;;;7.78;1.15;;;13.80;99.90;;;;;;5036367;28;25073;-72
2023/03/31 13:19:53;;;;;;;6.40;1.00;;;13.80;99.90;;;;;;5035363;28;25064;-73
2023/03/31 13:22:34;;;;;;;5.50;1.20;;;13.70;99.90;;;;;;5036203;28;25138;-73
2023/03/31 13:25:30;;;;;;;6.22;2.20;;;13.60;99.90;;;;;;5036194;28;25120;-72
2023/03/31 13:28:05;;;;;;;5.53;1.90;;;13.40;99.90;;;;;;5036744;28;25128;-73
2023/03/31 13:30:41;;;;;;;7.45;2.05;;;13.40;99.90;;;;;;5018690;28;25116;-72
2023/03/31 13:33:30;;;;;;;6.25;2.20;;;13.40;99.90;;;;;;5036391;28;25084;-72